Time;durP1;ratioP1;P1;durP2;ratioP2;P2;SDS_P1;SDS_P2;PMS_P1;PMS_P2;Temp;Humidity;BMP_temperature;BMP_pressure;BME280_temperature;BME280_humidity;BME280_pressure;Samples;Min_cycle;Max_cycle;Signal;HPM_P1;HPM_P2
2023/07/15 00:01:19;;;;;;;6.40;2.95;;;;;;;21.10;53.76;100293.84;5068645;28;20029;-69
2023/07/15 00:03:46;;;;;;;4.10;2.05;;;;;;;21.14;53.63;100297.06;5068566;28;20044;-68
2023/07/15 00:06:12;;;;;;;5.47;2.70;;;;;;;21.12;52.88;100290.84;5079386;28;20426;-68
2023/07/15 00:08:37;;;;;;;4.25;2.63;;;;;;;21.15;53.01;100287.72;5078704;28;20040;-69
2023/07/15 00:11:03;;;;;;;4.85;2.50;;;;;;;21.12;53.03;100290.84;5068820;28;20288;-68
2023/07/15 00:13:28;;;;;;;6.18;2.42;;;;;;;21.11;53.59;100291.91;5069796;28;20091;-70
2023/07/15 00:15:54;;;;;;;4.18;2.67;;;;;;;21.10;52.65;100287.44;5070118;28;20093;-68
2023/07/15 00:18:21;;;;;;;5.20;2.53;;;;;;;21.05;53.52;100285.25;5051759;28;20422;-67
2023/07/15 00:20:47;;;;;;;4.03;2.67;;;;;;;21.08;52.24;100292.31;5074843;28;20036;-69
2023/07/15 00:23:25;;;;;;;5.47;2.42;;;;;;;21.05;53.08;100292.69;5089194;28;20122;-69
2023/07/15 00:25:53;;;;;;;5.35;2.80;;;;;;;21.02;53.30;100284.78;5078031;28;20094;-68
2023/07/15 00:28:20;;;;;;;3.85;2.40;;;;;;;20.96;53.55;100288.31;5074285;28;20421;-68
2023/07/15 00:30:48;;;;;;;7.15;2.55;;;;;;;20.84;54.07;100285.16;5070213;28;20368;-68
2023/07/15 00:33:16;;;;;;;5.35;2.53;;;;;;;20.85;52.43;100289.69;5067946;28;20044;-69
2023/07/15 00:35:43;;;;;;;4.32;2.40;;;;;;;20.79;54.44;100293.19;5068886;28;20035;-69
2023/07/15 00:38:10;;;;;;;5.55;2.75;;;;;;;20.76;53.58;100279.75;5071939;28;20081;-69
2023/07/15 00:40:45;;;;;;;3.95;2.30;;;;;;;20.79;53.50;100293.19;5087296;28;20109;-69
2023/07/15 00:43:48;;;;;;;4.65;2.38;;;;;;;20.85;54.18;100289.69;5085584;28;20064;-69
2023/07/15 00:46:19;;;;;;;5.78;2.35;;;;;;;20.85;53.59;100286.91;5053741;28;20073;-69
2023/07/15 00:49:03;;;;;;;4.45;2.30;;;;;;;20.88;53.60;100290.13;5068714;28;20563;-70
2023/07/15 00:51:33;;;;;;;5.43;2.30;;;;;;;20.86;54.09;100300.53;5103957;28;20093;-69
2023/07/15 00:53:59;;;;;;;4.60;2.47;;;;;;;20.92;52.73;100301.66;5086200;28;20127;-70
2023/07/15 00:56:27;;;;;;;4.40;2.75;;;;;;;20.86;54.48;100300.53;5073177;28;20596;-68
2023/07/15 00:58:53;;;;;;;3.45;2.20;;;;;;;20.86;53.55;100302.44;5076239;28;20034;-69
2023/07/15 01:01:18;;;;;;;5.18;2.40;;;;;;;20.83;53.82;100298.13;5066875;28;20523;-69
2023/07/15 01:03:44;;;;;;;8.93;2.63;;;;;;;20.74;54.88;100299.28;5081298;28;20352;-69
2023/07/15 01:06:11;;;;;;;5.88;2.15;;;;;;;20.74;53.56;100301.19;5088298;28;20472;-69
2023/07/15 01:08:37;;;;;;;10.55;2.55;;;;;;;20.68;54.33;100299.19;5072473;28;20100;-69
2023/07/15 01:11:06;;;;;;;4.85;2.63;;;;;;;20.60;54.86;100300.16;5065957;28;20036;-69
2023/07/15 01:13:32;;;;;;;4.00;2.03;;;;;;;20.50;55.05;100303.19;5056545;28;20501;-70
2023/07/15 01:15:57;;;;;;;6.38;2.72;;;;;;;20.40;55.78;100313.63;5086210;28;20032;-69
2023/07/15 01:18:23;;;;;;;4.50;2.05;;;;;;;20.30;56.73;100308.38;5089177;28;20075;-69
2023/07/15 01:20:50;;;;;;;3.83;2.40;;;;;;;20.20;58.01;100305.03;5088218;28;20035;-69
2023/07/15 01:23:16;;;;;;;4.32;2.50;;;;;;;20.12;57.26;100302.31;5067657;28;20040;-68
2023/07/15 01:25:43;;;;;;;5.22;2.22;;;;;;;20.06;58.18;100311.38;5087931;28;20036;-69
2023/07/15 01:28:09;;;;;;;6.85;2.60;;;;;;;19.97;58.52;100305.06;5084634;28;20089;-70
2023/07/15 01:30:35;;;;;;;3.00;2.15;;;;;;;19.91;58.33;100310.44;5070414;28;20028;-69
2023/07/15 01:33:00;;;;;;;5.60;2.45;;;;;;;19.83;58.42;100303.97;5073921;28;20111;-68
2023/07/15 01:35:25;;;;;;;4.45;2.67;;;;;;;19.81;58.15;100306.03;5088001;28;20039;-69
2023/07/15 01:37:51;;;;;;;9.40;2.90;;;;;;;19.76;58.76;100307.63;5086951;28;20028;-68
2023/07/15 01:40:17;;;;;;;7.05;2.40;;;;;;;19.67;59.24;100305.97;5087271;28;20052;-69
2023/07/15 01:42:42;;;;;;;7.65;2.72;;;;;;;19.58;60.37;100305.13;5073414;28;20520;-69
2023/07/15 01:45:11;;;;;;;4.93;2.15;;;;;;;19.52;59.88;100309.47;5073994;28;20119;-69
2023/07/15 01:47:37;;;;;;;5.20;2.30;;;;;;;19.38;62.05;100321.28;5081946;28;20464;-69
2023/07/15 01:50:05;;;;;;;6.93;2.55;;;;;;;19.31;61.81;100325.84;5067732;28;20056;-69
2023/07/15 01:52:32;;;;;;;4.63;2.42;;;;;;;19.24;61.97;100316.56;5074331;28;20059;-69
2023/07/15 01:54:58;;;;;;;2.45;2.00;;;;;;;19.20;62.17;100318.81;5087245;28;20063;-69
2023/07/15 01:57:26;;;;;;;7.45;2.90;;;;;;;19.13;62.39;100320.59;5078856;28;20074;-69
2023/07/15 01:59:57;;;;;;;5.05;2.55;;;;;;;19.08;61.24;100320.25;5079619;28;20119;-69
2023/07/15 02:02:23;;;;;;;4.40;2.80;;;;;;;19.01;62.98;100335.78;5086781;28;20032;-69
2023/07/15 02:04:49;;;;;;;7.35;2.50;;;;;;;18.92;63.85;100329.44;5088159;28;20039;-69
2023/07/15 02:07:14;;;;;;;6.68;2.83;;;;;;;18.85;63.64;100322.94;5086825;28;20074;-69
2023/07/15 02:09:39;;;;;;;6.32;2.65;;;;;;;18.82;62.38;100326.03;5075851;28;20020;-69
2023/07/15 02:12:05;;;;;;;7.93;2.50;;;;;;;18.81;62.31;100329.84;5065929;28;20116;-70
2023/07/15 02:14:30;;;;;;;6.00;2.75;;;;;;;18.75;64.06;100330.56;5065277;28;20016;-69
2023/07/15 02:16:57;;;;;;;7.00;2.60;;;;;;;18.66;63.83;100326.06;5065946;28;20473;-70
2023/07/15 02:19:22;;;;;;;3.35;2.35;;;;;;;18.64;64.18;100334.50;5066470;28;20032;-70
2023/07/15 02:21:47;;;;;;;3.58;2.40;;;;;;;18.57;64.92;100336.25;5070343;28;20063;-69
2023/07/15 02:24:12;;;;;;;5.95;2.42;;;;;;;18.54;64.68;100337.44;5085306;28;20410;-69
2023/07/15 02:26:39;;;;;;;5.57;2.42;;;;;;;18.55;62.65;100336.41;5081590;28;20395;-69
2023/07/15 02:29:04;;;;;;;5.85;2.63;;;;;;;18.51;64.86;100329.53;5076597;28;20085;-68
2023/07/15 02:31:29;;;;;;;4.93;2.55;;;;;;;18.53;63.57;100337.63;5087473;28;20020;-69
2023/07/15 02:33:55;;;;;;;6.50;2.47;;;;;;;18.54;63.50;100336.59;5086073;28;20032;-70
2023/07/15 02:36:20;;;;;;;6.25;2.47;;;;;;;18.47;65.01;100341.94;5087299;28;20051;-69
2023/07/15 02:38:46;;;;;;;3.53;2.40;;;;;;;18.43;64.61;100347.97;5085165;28;20085;-69
2023/07/15 02:41:12;;;;;;;4.25;2.67;;;;;;;18.43;63.87;100343.31;5078516;28;20092;-70
2023/07/15 02:43:38;;;;;;;3.63;2.05;;;;;;;18.42;66.39;100347.13;5066451;28;20415;-69
2023/07/15 02:46:03;;;;;;;3.67;2.40;;;;;;;18.36;65.51;100334.88;5087041;28;20034;-69
2023/07/15 02:48:29;;;;;;;7.68;2.50;;;;;;;18.30;66.39;100331.97;5073102;28;20107;-69
2023/07/15 02:50:54;;;;;;;3.95;2.50;;;;;;;18.24;66.70;100329.94;5045532;28;20484;-70
2023/07/15 02:53:21;;;;;;;5.90;2.58;;;;;;;18.21;65.90;100324.75;5051093;28;20029;-69
2023/07/15 02:55:46;;;;;;;7.32;2.72;;;;;;;18.22;64.80;100320.97;5046233;28;20050;-69
2023/07/15 02:58:17;;;;;;;4.25;2.17;;;;;;;18.17;66.19;100315.97;5044811;28;20488;-69
2023/07/15 03:00:43;;;;;;;4.43;2.33;;;;;;;18.14;66.23;100324.59;5079434;28;20046;-69
2023/07/15 03:03:09;;;;;;;6.60;2.53;;;;;;;18.09;67.12;100329.75;5077483;28;20111;-69
2023/07/15 03:05:35;;;;;;;6.05;2.40;;;;;;;18.07;67.29;100327.16;5066582;28;20044;-69
2023/07/15 03:08:00;;;;;;;6.50;2.70;;;;;;;18.05;66.59;100331.16;5066200;28;20098;-70
2023/07/15 03:10:26;;;;;;;7.82;2.58;;;;;;;18.02;66.29;100323.22;5075012;28;20335;-70
2023/07/15 03:12:51;;;;;;;2.97;2.45;;;;;;;17.97;67.82;100328.38;5085932;28;20370;-70
2023/07/15 03:15:17;;;;;;;6.75;2.25;;;;;;;17.94;66.89;100326.81;5083280;28;20031;-69
2023/07/15 03:17:43;;;;;;;6.10;2.80;;;;;;;17.92;66.93;100328.03;5086947;28;20024;-69
2023/07/15 03:20:22;;;;;;;4.38;2.70;;;;;;;17.88;67.05;100329.41;5066802;28;20037;-69
2023/07/15 03:22:51;;;;;;;3.75;2.08;;;;;;;17.85;67.27;100330.59;5065860;28;20037;-70
2023/07/15 03:25:19;;;;;;;3.67;2.45;;;;;;;17.84;67.03;100328.88;5074424;28;20028;-69
2023/07/15 03:27:45;;;;;;;3.22;2.25;;;;;;;17.80;67.70;100336.63;5084762;28;20135;-69
2023/07/15 03:30:10;;;;;;;5.65;2.50;;;;;;;17.71;68.77;100332.09;5059801;28;20512;-70
2023/07/15 03:32:37;;;;;;;7.45;2.55;;;;;;;17.69;68.91;100325.91;5065239;28;20135;-70
2023/07/15 03:35:04;;;;;;;3.67;2.30;;;;;;;17.64;69.69;100335.72;5067939;28;20029;-69
2023/07/15 03:37:30;;;;;;;5.10;2.45;;;;;;;17.58;69.52;100331.75;5069381;28;20040;-70
2023/07/15 03:39:56;;;;;;;4.03;2.08;;;;;;;17.54;70.19;100327.63;5069452;28;20044;-69
2023/07/15 03:42:22;;;;;;;5.13;2.88;;;;;;;17.50;70.70;100329.84;5068345;28;20043;-69
2023/07/15 03:44:47;;;;;;;2.92;2.20;;;;;;;17.45;70.00;100326.75;5085129;28;20600;-69
2023/07/15 03:47:12;;;;;;;4.70;2.63;;;;;;;17.44;70.32;100332.38;5078417;28;20452;-69
2023/07/15 03:49:37;;;;;;;6.13;3.10;;;;;;;17.45;69.29;100329.50;5065159;28;20504;-70
2023/07/15 03:52:03;;;;;;;6.75;3.13;;;;;;;17.46;69.26;100335.84;5062755;28;20508;-69
2023/07/15 03:54:29;;;;;;;4.18;2.60;;;;;;;17.40;70.59;100329.13;5048317;28;20430;-70
2023/07/15 03:56:54;;;;;;;5.35;2.72;;;;;;;17.39;70.79;100323.78;5071120;28;20442;-70
2023/07/15 03:59:19;;;;;;;4.72;3.25;;;;;;;17.36;70.66;100325.00;5076102;28;20040;-69
2023/07/15 04:01:45;;;;;;;5.45;2.80;;;;;;;17.36;70.95;100324.13;5069657;28;20425;-70
2023/07/15 04:04:11;;;;;;;6.50;2.83;;;;;;;17.34;70.79;100332.53;5085574;28;20079;-70
2023/07/15 04:06:37;;;;;;;7.63;3.55;;;;;;;17.33;70.64;100319.81;5089780;28;20023;-69
2023/07/15 04:09:05;;;;;;;5.78;2.58;;;;;;;17.32;71.51;100320.84;5087733;28;20102;-70
2023/07/15 04:11:32;;;;;;;5.65;2.83;;;;;;;17.26;71.34;100322.41;5080181;28;20430;-70
2023/07/15 04:13:58;;;;;;;11.02;3.15;;;;;;;17.25;71.94;100326.19;5071428;28;20797;-69
2023/07/15 04:16:23;;;;;;;4.00;2.88;;;;;;;17.25;71.69;100315.19;5090497;28;20055;-70
2023/07/15 04:18:48;;;;;;;4.90;2.88;;;;;;;17.24;72.17;100318.06;5089712;28;20075;-70
2023/07/15 04:21:13;;;;;;;5.32;2.95;;;;;;;17.21;72.79;100323.94;5089329;28;20044;-70
2023/07/15 04:23:39;;;;;;;5.90;2.90;;;;;;;17.20;72.72;100325.78;5068670;28;20527;-69
2023/07/15 04:26:07;;;;;;;4.53;2.85;;;;;;;17.21;72.22;100333.03;5067304;28;20138;-70
2023/07/15 04:28:33;;;;;;;4.88;2.95;;;;;;;17.20;73.31;100331.28;5081802;28;20131;-70
2023/07/15 04:30:58;;;;;;;6.63;3.50;;;;;;;17.22;72.69;100332.00;5087719;28;20119;-70
2023/07/15 04:33:24;;;;;;;4.63;2.40;;;;;;;17.27;72.85;100337.84;5090055;28;20515;-70
2023/07/15 04:35:49;;;;;;;6.00;3.10;;;;;;;17.29;72.74;100343.19;5089293;28;20032;-69
2023/07/15 04:38:15;;;;;;;3.90;3.25;;;;;;;17.29;73.21;100344.03;5078476;28;20418;-70
2023/07/15 04:40:40;;;;;;;6.25;3.38;;;;;;;17.31;73.71;100347.50;5067105;28;20063;-70
2023/07/15 04:43:06;;;;;;;8.05;4.00;;;;;;;17.35;72.72;100348.03;5086216;28;20052;-69
2023/07/15 04:45:32;;;;;;;7.18;3.85;;;;;;;17.39;73.34;100341.13;5071680;28;20040;-69
2023/07/15 04:47:58;;;;;;;5.55;3.42;;;;;;;17.43;74.03;100341.66;5066261;28;20060;-69
2023/07/15 04:50:23;;;;;;;11.75;5.50;;;;;;;17.45;74.22;100354.25;5047784;28;20028;-69
2023/07/15 04:52:49;;;;;;;5.72;3.50;;;;;;;17.51;73.67;100347.19;5065051;28;20089;-69
2023/07/15 04:55:15;;;;;;;8.98;4.15;;;;;;;17.57;73.50;100355.63;5066781;28;20468;-70
2023/07/15 04:57:41;;;;;;;5.47;3.50;;;;;;;17.62;73.63;100351.50;5067905;28;20036;-69
2023/07/15 05:00:10;;;;;;;6.28;3.83;;;;;;;17.64;75.01;100342.06;5080106;28;20037;-69
2023/07/15 05:02:37;;;;;;;9.68;3.90;;;;;;;17.70;73.49;100346.88;5048420;28;20029;-69
2023/07/15 05:05:04;;;;;;;7.40;3.70;;;;;;;17.76;72.73;100346.22;5047151;28;20064;-69
2023/07/15 05:07:29;;;;;;;8.82;3.38;;;;;;;17.83;72.65;100344.53;5054465;28;20044;-69
2023/07/15 05:09:55;;;;;;;4.60;3.10;;;;;;;17.90;71.89;100341.09;5068072;28;20032;-70
2023/07/15 05:12:20;;;;;;;4.72;3.22;;;;;;;17.97;72.47;100347.66;5068961;28;20185;-69
2023/07/15 05:14:45;;;;;;;6.32;3.30;;;;;;;18.00;73.13;100337.16;5072507;28;20041;-69
2023/07/15 05:17:11;;;;;;;7.95;3.00;;;;;;;18.07;72.25;100343.69;5068386;28;20040;-69
2023/07/15 05:19:36;;;;;;;7.78;3.30;;;;;;;18.15;74.68;100358.50;5066803;28;20314;-69
2023/07/15 05:22:02;;;;;;;10.60;4.78;;;;;;;18.20;74.61;100358.84;5066080;28;20040;-70
2023/07/15 05:24:28;;;;;;;5.35;3.47;;;;;;;18.19;75.66;100348.88;5067731;28;20044;-70
2023/07/15 05:26:55;;;;;;;5.50;3.75;;;;;;;18.24;75.23;100346.44;5068390;28;20020;-70
2023/07/15 05:29:20;;;;;;;5.60;3.88;;;;;;;18.33;74.46;100342.66;5075766;28;20028;-70
2023/07/15 05:31:46;;;;;;;5.72;3.38;;;;;;;18.42;73.12;100349.88;5086843;28;20081;-70
2023/07/15 05:34:11;;;;;;;7.93;4.22;;;;;;;18.48;73.40;100342.81;5073069;28;20537;-70
2023/07/15 05:36:37;;;;;;;5.85;4.00;;;;;;;18.55;73.09;100352.06;5067358;28;20039;-70
2023/07/15 05:39:02;;;;;;;7.18;4.55;;;;;;;18.61;73.27;100355.00;5067371;28;20049;-70
2023/07/15 05:41:28;;;;;;;10.15;5.43;;;;;;;18.71;72.66;100356.75;5073366;28;20037;-69
2023/07/15 05:43:53;;;;;;;6.57;4.50;;;;;;;18.80;72.93;100348.28;5073807;28;20036;-69
2023/07/15 05:46:19;;;;;;;10.18;4.97;;;;;;;18.92;71.18;100348.75;5049723;28;20039;-70
2023/07/15 05:48:44;;;;;;;10.25;4.80;;;;;;;19.05;71.17;100349.03;5058622;28;20045;-69
2023/07/15 05:51:10;;;;;;;7.32;3.90;;;;;;;19.19;71.22;100352.94;5046223;28;20037;-69
2023/07/15 05:53:35;;;;;;;5.75;4.00;;;;;;;19.34;70.64;100358.56;5059712;28;20286;-70
2023/07/15 05:56:01;;;;;;;6.95;4.32;;;;;;;19.47;71.81;100360.75;5066835;28;20043;-69
2023/07/15 05:58:26;;;;;;;9.00;4.03;;;;;;;19.60;72.01;100361.91;5071276;28;20047;-70
2023/07/15 06:00:52;;;;;;;9.88;3.97;;;;;;;19.76;72.42;100362.84;5070778;28;20483;-69
2023/07/15 06:03:17;;;;;;;6.72;3.70;;;;;;;19.87;70.90;100363.28;5086745;28;20089;-69
2023/07/15 06:05:44;;;;;;;8.85;4.10;;;;;;;20.00;69.87;100364.56;5087355;28;20097;-69
2023/07/15 06:08:09;;;;;;;7.55;3.40;;;;;;;20.07;67.34;100352.59;5087275;28;20100;-69
2023/07/15 06:10:35;;;;;;;8.40;3.10;;;;;;;20.08;69.22;100359.84;5067833;28;20036;-69
2023/07/15 06:13:01;;;;;;;4.38;2.60;;;;;;;20.08;67.90;100364.50;5063524;28;20154;-69
2023/07/15 06:15:26;;;;;;;5.13;2.95;;;;;;;20.10;67.88;100362.44;5060703;28;20104;-69
2023/07/15 06:17:52;;;;;;;9.20;2.85;;;;;;;20.12;68.10;100366.72;5066839;28;20028;-69
2023/07/15 06:20:18;;;;;;;3.88;2.30;;;;;;;20.14;67.89;100374.81;5065891;28;20047;-69
2023/07/15 06:22:44;;;;;;;4.15;2.17;;;;;;;20.16;66.77;100367.22;5065166;28;20396;-69
2023/07/15 06:25:11;;;;;;;5.85;2.38;;;;;;;20.19;68.38;100363.19;5081716;28;20042;-69
2023/07/15 06:27:37;;;;;;;4.22;2.80;;;;;;;20.18;69.20;100367.00;5082684;28;20032;-68
2023/07/15 06:30:04;;;;;;;7.30;2.40;;;;;;;20.19;69.83;100358.56;5066407;28;20106;-68
2023/07/15 06:32:30;;;;;;;2.15;1.83;;;;;;;20.21;69.62;100358.38;5066369;28;20029;-69
2023/07/15 06:34:56;;;;;;;6.28;2.20;;;;;;;20.29;69.56;100364.69;5065718;28;20032;-69
2023/07/15 06:37:21;;;;;;;4.45;2.80;;;;;;;20.35;70.23;100363.06;5066204;28;20028;-69
2023/07/15 06:39:47;;;;;;;5.97;2.72;;;;;;;20.47;70.28;100371.75;5065468;28;20154;-69
2023/07/15 06:42:12;;;;;;;4.18;2.28;;;;;;;20.72;70.83;100369.66;5065480;28;20047;-68
2023/07/15 06:44:38;;;;;;;6.03;2.30;;;;;;;21.10;70.94;100364.91;5065866;28;20032;-69
2023/07/15 06:47:03;;;;;;;4.45;2.42;;;;;;;21.34;68.01;100370.16;5070920;28;20040;-69
2023/07/15 06:49:29;;;;;;;3.60;2.20;;;;;;;21.50;69.31;100368.25;5067007;28;20043;-69
2023/07/15 06:51:54;;;;;;;3.97;2.13;;;;;;;21.71;67.59;100362.72;5072279;28;20043;-71
2023/07/15 06:54:20;;;;;;;5.47;2.15;;;;;;;21.84;67.42;100370.34;5087173;28;20040;-69
2023/07/15 06:56:45;;;;;;;5.60;1.88;;;;;;;21.96;67.77;100363.19;5079787;28;20062;-70
2023/07/15 06:59:11;;;;;;;6.65;1.90;;;;;;;21.98;67.37;100357.47;5069723;28;20080;-69
2023/07/15 07:01:36;;;;;;;5.22;2.35;;;;;;;21.98;67.62;100363.88;5086187;28;20421;-70
2023/07/15 07:04:01;;;;;;;4.70;2.33;;;;;;;21.98;68.05;100358.34;5061437;28;20403;-68
2023/07/15 07:06:28;;;;;;;4.68;2.20;;;;;;;21.97;67.49;100372.41;5063720;28;20040;-69
2023/07/15 07:08:54;;;;;;;4.43;2.30;;;;;;;22.05;68.13;100370.31;5066024;28;20508;-68
2023/07/15 07:11:20;;;;;;;3.17;1.90;;;;;;;22.20;67.20;100375.00;5069865;28;20472;-69
2023/07/15 07:13:46;;;;;;;6.55;2.03;;;;;;;22.26;67.89;100357.56;5071043;28;20438;-69
2023/07/15 07:16:11;;;;;;;2.88;1.75;;;;;;;22.39;67.29;100366.88;5069709;28;20044;-69
2023/07/15 07:18:37;;;;;;;3.40;1.77;;;;;;;22.56;66.95;100364.63;5075273;28;20039;-69
2023/07/15 07:21:02;;;;;;;4.35;1.98;;;;;;;22.65;66.16;100373.66;5089819;28;20432;-69
2023/07/15 07:23:29;;;;;;;7.43;2.40;;;;;;;22.75;64.72;100365.84;5089978;28;20048;-68
2023/07/15 07:25:55;;;;;;;3.35;1.80;;;;;;;22.92;66.19;100369.22;5075251;28;20080;-69
2023/07/15 07:28:23;;;;;;;6.47;2.20;;;;;;;23.15;66.14;100377.25;5059763;28;20511;-69
2023/07/15 07:30:49;;;;;;;3.53;1.70;;;;;;;23.40;65.42;100372.03;5083839;28;20039;-70
2023/07/15 07:33:15;;;;;;;3.50;1.40;;;;;;;23.62;64.69;100370.84;5089465;28;20507;-69
2023/07/15 07:35:45;;;;;;;5.18;1.80;;;;;;;23.86;63.69;100383.34;5089291;28;20116;-68
2023/07/15 07:38:10;;;;;;;4.45;1.80;;;;;;;24.10;61.30;100378.25;5071232;28;20044;-69
2023/07/15 07:40:35;;;;;;;3.20;1.85;;;;;;;24.32;61.68;100382.59;5068540;28;20056;-68
2023/07/15 07:43:01;;;;;;;5.50;1.90;;;;;;;24.31;59.24;100380.88;5084622;28;20043;-69
2023/07/15 07:45:26;;;;;;;2.92;1.90;;;;;;;24.22;60.50;100382.16;5068080;28;20454;-70
2023/07/15 07:47:51;;;;;;;5.85;1.65;;;;;;;24.31;61.35;100378.09;5080663;28;20098;-69
2023/07/15 07:50:17;;;;;;;2.00;1.33;;;;;;;24.38;60.09;100370.63;5069006;28;20040;-70
2023/07/15 07:52:42;;;;;;;4.90;1.60;;;;;;;24.39;60.98;100372.38;5068942;28;20037;-69
2023/07/15 07:55:08;;;;;;;5.70;1.85;;;;;;;24.36;60.52;100369.13;5068411;28;20078;-69
2023/07/15 07:57:34;;;;;;;2.83;1.50;;;;;;;24.42;59.90;100383.03;5069018;28;20567;-70
2023/07/15 07:59:59;;;;;;;3.25;1.65;;;;;;;24.51;58.84;100374.50;5084437;28;20115;-69
2023/07/15 08:02:25;;;;;;;3.20;1.60;;;;;;;24.69;60.08;100361.66;5087852;28;20060;-70
2023/07/15 08:04:50;;;;;;;3.45;1.90;;;;;;;24.93;60.86;100362.91;5086598;28;20105;-69
2023/07/15 08:07:16;;;;;;;2.00;1.50;;;;;;;25.07;59.19;100377.69;5064202;28;20044;-69
2023/07/15 08:09:41;;;;;;;11.13;2.25;;;;;;;25.16;59.71;100376.38;5058730;28;20395;-69
2023/07/15 08:12:10;;;;;;;2.95;1.98;;;;;;;25.28;60.84;100373.78;5075236;28;20071;-69
2023/07/15 08:14:35;;;;;;;5.30;1.80;;;;;;;25.41;60.07;100378.44;5073346;28;20554;-69
2023/07/15 08:17:00;;;;;;;2.85;1.80;;;;;;;25.44;58.76;100386.34;5069485;28;20040;-69
2023/07/15 08:19:26;;;;;;;3.47;1.35;;;;;;;25.49;58.42;100378.19;5089205;28;20070;-70
2023/07/15 08:21:51;;;;;;;6.70;1.60;;;;;;;25.58;58.79;100379.66;5084257;28;20035;-69
2023/07/15 08:24:16;;;;;;;4.57;1.80;;;;;;;25.66;58.25;100387.75;5087205;28;20543;-69
2023/07/15 08:26:42;;;;;;;4.55;1.67;;;;;;;25.54;58.01;100385.88;5088623;28;20527;-69
2023/07/15 08:29:07;;;;;;;3.63;1.55;;;;;;;25.40;58.60;100385.94;5083097;28;20117;-68
2023/07/15 08:31:33;;;;;;;2.97;1.38;;;;;;;25.29;58.15;100394.13;5068542;28;20036;-68
2023/07/15 08:33:58;;;;;;;9.07;2.53;;;;;;;25.37;58.39;100394.75;5066784;28;20100;-69
2023/07/15 08:36:24;;;;;;;3.17;1.70;;;;;;;25.30;57.25;100402.25;5067696;28;20542;-69
2023/07/15 08:38:49;;;;;;;3.80;1.67;;;;;;;25.15;58.14;100398.88;5085373;28;20047;-69
2023/07/15 08:41:16;;;;;;;3.40;1.40;;;;;;;25.07;59.09;100399.06;5085696;28;20043;-69
2023/07/15 08:43:45;;;;;;;3.10;1.60;;;;;;;25.15;60.12;100402.50;5085247;28;20047;-69
2023/07/15 08:46:27;;;;;;;3.28;1.55;;;;;;;25.29;60.32;100405.25;5082206;28;20455;-69
2023/07/15 08:48:54;;;;;;;2.92;1.50;;;;;;;25.39;59.54;100406.50;5068259;28;20391;-69
2023/07/15 08:51:41;;;;;;;3.10;1.58;;;;;;;25.47;59.61;100413.78;5083829;28;20036;-69
2023/07/15 08:54:08;;;;;;;3.67;1.55;;;;;;;25.34;57.92;100420.25;5066762;28;20040;-69
2023/07/15 08:56:36;;;;;;;4.65;1.83;;;;;;;25.21;57.31;100414.69;5067364;28;20044;-68
2023/07/15 08:59:05;;;;;;;6.47;2.58;;;;;;;25.08;59.38;100417.50;5072862;28;20044;-69
2023/07/15 09:01:30;;;;;;;3.10;1.90;;;;;;;25.03;60.04;100428.41;5067508;28;20427;-70
2023/07/15 09:03:56;;;;;;;3.00;1.70;;;;;;;25.00;59.96;100435.28;5068157;28;20036;-69
2023/07/15 09:06:22;;;;;;;5.63;2.42;;;;;;;24.75;59.03;100442.53;5079093;28;20040;-69
2023/07/15 09:08:51;;;;;;;9.48;4.47;;;;;;;24.53;58.97;100439.09;5069876;28;20175;-70
2023/07/15 09:11:17;;;;;;;9.50;3.88;;;;;;;24.35;60.27;100443.34;5066778;28;20511;-70
2023/07/15 09:13:44;;;;;;;6.97;2.65;;;;;;;24.23;59.49;100425.56;5066342;28;20040;-70
2023/07/15 09:16:09;;;;;;;3.92;2.08;;;;;;;24.08;60.81;100442.41;5074475;28;20468;-69
2023/07/15 09:18:40;;;;;;;2.95;2.08;;;;;;;24.01;58.87;100435.13;5066174;28;20120;-68
2023/07/15 09:21:12;;;;;;;3.72;2.40;;;;;;;24.00;59.98;100442.59;5067043;28;20403;-69
2023/07/15 09:23:39;;;;;;;;;;;;;;;24.12;58.91;100435.38;5077038;28;20509;-69
2023/07/15 09:26:05;;;;;;;6.15;2.55;;;;;;;24.24;57.75;100452.28;5086769;28;19923;-68
2023/07/15 09:28:30;;;;;;;4.47;2.17;;;;;;;24.40;58.85;100443.59;5086053;28;20038;-68
2023/07/15 09:30:57;;;;;;;5.20;2.40;;;;;;;24.67;57.25;100435.28;5068433;28;20024;-69
2023/07/15 09:33:42;;;;;;;7.82;2.30;;;;;;;24.81;56.81;100438.94;5067311;28;20468;-69
2023/07/15 09:36:09;;;;;;;4.07;2.00;;;;;;;24.78;56.00;100439.34;5048576;28;20127;-69
2023/07/15 09:38:38;;;;;;;3.75;1.85;;;;;;;24.92;57.39;100443.84;5066560;28;20059;-69
2023/07/15 09:41:10;;;;;;;5.00;2.03;;;;;;;24.87;57.26;100446.41;5062114;28;20510;-69
2023/07/15 09:43:52;;;;;;;5.18;2.58;;;;;;;24.69;56.05;100447.03;5066277;28;20047;-69
2023/07/15 09:46:19;;;;;;;7.45;2.13;;;;;;;24.36;57.85;100449.75;5046938;28;20037;-69
2023/07/15 09:48:46;;;;;;;4.32;2.10;;;;;;;24.24;58.04;100457.00;5055391;28;20519;-69
2023/07/15 09:51:13;;;;;;;4.15;1.90;;;;;;;24.27;59.58;100467.69;5045266;28;20106;-69
2023/07/15 09:53:43;;;;;;;8.23;2.10;;;;;;;24.19;58.18;100480.72;5064937;28;20067;-69
2023/07/15 09:56:09;;;;;;;5.00;1.90;;;;;;;24.12;59.39;100485.41;5066359;28;20044;-70
2023/07/15 09:58:37;;;;;;;5.25;1.77;;;;;;;24.03;58.54;100495.00;5069551;28;20028;-69
2023/07/15 10:01:04;;;;;;;4.85;2.10;;;;;;;23.90;57.84;100486.59;5070246;28;20116;-69
2023/07/15 10:03:41;;;;;;;4.15;2.17;;;;;;;23.78;60.55;100479.91;5080033;28;20123;-70
2023/07/15 10:06:07;;;;;;;6.00;2.40;;;;;;;23.60;60.04;100492.41;5066725;28;20379;-69
2023/07/15 10:08:34;;;;;;;3.50;1.95;;;;;;;23.55;61.25;100485.72;5066491;28;20518;-68
2023/07/15 10:11:00;;;;;;;4.57;2.15;;;;;;;23.44;62.67;100473.28;5065041;28;20029;-70
2023/07/15 10:13:27;;;;;;;4.82;2.38;;;;;;;23.43;64.19;100483.53;5064611;28;20038;-69
2023/07/15 10:15:52;;;;;;;5.38;2.22;;;;;;;23.37;64.35;100475.19;5066341;28;20035;-70
2023/07/15 10:18:19;;;;;;;4.00;2.35;;;;;;;23.30;63.50;100469.56;5065920;28;20044;-69
2023/07/15 10:20:55;;;;;;;4.40;2.33;;;;;;;23.23;62.98;100462.28;5065744;28;20097;-70
2023/07/15 10:23:26;;;;;;;15.40;3.10;;;;;;;23.14;62.97;100433.81;5064672;28;20169;-70
2023/07/15 10:26:17;;;;;;;9.68;2.45;;;;;;;23.11;66.35;100467.53;5066065;28;20041;-69
2023/07/15 10:28:43;;;;;;;4.35;2.25;;;;;;;23.03;66.77;100435.22;5058284;28;20395;-70
2023/07/15 10:31:14;;;;;;;5.35;2.10;;;;;;;22.94;67.33;100446.69;5085010;28;20047;-69
2023/07/15 10:34:02;;;;;;;6.20;2.20;;;;;;;22.94;67.26;100457.78;5052518;28;20051;-69
2023/07/15 10:36:44;;;;;;;2.90;2.15;;;;;;;22.94;67.16;100458.63;5045454;28;20408;-69
2023/07/15 10:39:11;;;;;;;5.18;2.13;;;;;;;23.04;67.43;100453.59;5063995;28;20060;-70
2023/07/15 10:41:42;;;;;;;4.30;1.98;;;;;;;23.23;70.86;100449.25;5065635;28;20037;-70
2023/07/15 10:44:20;;;;;;;6.32;2.15;;;;;;;23.68;68.76;100452.50;5065806;28;20172;-70
2023/07/15 10:46:58;;;;;;;5.47;2.30;;;;;;;23.87;67.60;100443.41;5084827;28;20036;-70
2023/07/15 10:49:24;;;;;;;4.20;1.92;;;;;;;23.81;66.49;100443.38;5071891;28;20052;-69
2023/07/15 10:51:54;;;;;;;3.42;1.92;;;;;;;23.70;65.74;100460.66;5059983;28;20445;-70
2023/07/15 10:54:24;;;;;;;2.55;1.90;;;;;;;23.68;65.74;100444.19;5060501;28;20042;-69
2023/07/15 10:56:49;;;;;;;4.38;1.90;;;;;;;23.83;66.40;100453.25;5065800;28;20511;-69
2023/07/15 10:59:15;;;;;;;3.53;2.17;;;;;;;24.16;65.79;100467.25;5069416;28;20024;-69
2023/07/15 11:01:44;;;;;;;6.53;2.22;;;;;;;24.34;63.62;100469.44;5065691;28;20537;-68
2023/07/15 11:04:10;;;;;;;4.97;2.42;;;;;;;24.33;65.65;100461.28;5064754;28;20511;-69
2023/07/15 11:06:36;;;;;;;4.07;2.17;;;;;;;24.15;64.67;100457.22;5065527;28;20028;-70
2023/07/15 11:09:14;;;;;;;3.42;1.90;;;;;;;23.95;64.25;100452.63;5069532;28;20094;-69
2023/07/15 11:11:40;;;;;;;4.07;1.85;;;;;;;23.86;63.16;100457.50;5065333;28;20036;-68
2023/07/15 11:14:05;;;;;;;4.50;1.85;;;;;;;24.08;66.06;100459.09;5069148;28;20086;-68
2023/07/15 11:16:35;;;;;;;4.95;2.20;;;;;;;24.39;64.75;100458.56;5065975;28;20173;-68
2023/07/15 11:19:01;;;;;;;3.92;2.00;;;;;;;24.48;62.94;100450.88;5063959;28;20036;-68
2023/07/15 11:21:26;;;;;;;24.95;2.58;;;;;;;24.52;62.29;100446.59;5063805;28;20576;-68
2023/07/15 11:23:52;;;;;;;5.13;1.90;;;;;;;24.67;62.42;100444.47;5086076;28;20552;-69